Opdyke, IL

10:21 PM CDT on October 31, 2014 (GMT -0500)
Fairfield Municipal | Change Station
CLOSE
Current Station
Airport
Location: Fairfield,
Elevation: 436 ft
Nearby Weather Stations
Active Advisory: Freeze Warning

Elev 436 ft 38.38 °N, 88.41 °W | Updated 6 minutes ago

Clear
Clear
37 °F
Feels Like 31 °F
N
9
Wind Variable Wind from NNW
Gusts 22 mph

Today
High -- | Low -- °F
--% Chance of Precip.
Yesterday
High -- | Low -- °F
Precip. -- in
7:20 AM 5:56 PM
First Quarter, 62% visible
Pressure 30.28 in
Visibility 10.0 miles
Clouds Clear
Windchill 31 °F
Dew Point 23 °F
Humidity 56%
Rainfall 0.00 in
Snow Depth Not available.
UV 0 out of 12
Pollen .90 out of 12
Air Quality Not available.
Flu Activity Not available.
METAR KFWC 010315Z AUTO 33008G19KT 10SM CLR 03/M05 A3028 RMK AO1 T00301051

More Conditions Fewer Conditions

Pressure 30.28 in
Visibility 10.0 miles
Clouds Clear
Windchill 31 °F
Dew Point 23 °F
Humidity 56%
Rainfall 0.00 in
Snow Depth Not available.
UV 0 out of 12
Pollen .90 out of 12
Air Quality Not available.
Flu Activity Not available.
METAR KFWC 010315Z AUTO 33008G19KT 10SM CLR 03/M05 A3028 RMK AO1 T00301051

More Conditions Fewer Conditions

10-Day Weather Forecast

Almanac

Astronomy

Oct. 31, 2014 Rise Set
Actual Time
Civil Twilight
Nautical Twilight
Astronomical Twilight
Moon
Length of Visible Light
Length of Day
Tomorrow will be .
, % of the Moon is Illuminated

Today's Extremes

State Highs State Lows

Community

WunderPhotos

Upload Photos

1,766,844 photos uploaded!

WunderBlogs® & News

Nearby

Air Quality

  Air Quality AQ Index Pollutant
Not available.

Snow Depth

Station Depth Elevation

Earthquake Activity

City Distance Mag. Time & Date
Minimum magnitude displayed is 2.5.

Coastal Water Temperatures

Place Temperature

Nearby Weather Stations